Time;durP1;ratioP1;P1;durP2;ratioP2;P2;SDS_P1;SDS_P2;PMS_P1;PMS_P2;Temp;Humidity;BMP_temperature;BMP_pressure;BME280_temperature;BME280_humidity;BME280_pressure;Samples;Min_cycle;Max_cycle;Signal;HPM_P1;HPM_P2
2023/05/04 00:01:23;;;;;;;25.00;18.80;;;;;;;9.05;81.59;97932.45;108920;1250;101703;-73
2023/05/04 00:03:51;;;;;;;25.80;21.00;;;;;;;9.05;81.56;97931.83;108947;1250;101298;-72
2023/05/04 00:06:19;;;;;;;28.70;21.10;;;;;;;9.06;81.57;97928.64;108942;1250;99429;-73
2023/05/04 00:08:47;;;;;;;29.10;20.80;;;;;;;9.07;81.63;97926.52;108873;1250;94235;-73
2023/05/04 00:11:16;;;;;;;28.90;21.30;;;;;;;9.05;81.57;97931.98;108923;1250;94425;-73
2023/05/04 00:13:44;;;;;;;25.90;21.90;;;;;;;9.02;81.50;97933.58;108571;1251;101231;-73
2023/05/04 00:16:12;;;;;;;29.20;21.80;;;;;;;9.02;81.64;97933.11;108982;1250;101409;-75
2023/05/04 00:18:40;;;;;;;28.50;21.50;;;;;;;9.01;81.61;97929.34;108900;1250;98749;-74
2023/05/04 00:21:08;;;;;;;31.60;22.50;;;;;;;9.01;81.58;97928.80;108535;1250;94587;-72
2023/05/04 00:23:37;;;;;;;33.70;21.60;;;;;;;8.97;81.58;97929.83;108659;1250;94500;-71
2023/05/04 00:26:05;;;;;;;25.40;20.60;;;;;;;8.93;81.62;97927.70;108841;1251;101982;-75
2023/05/04 00:28:33;;;;;;;25.60;20.40;;;;;;;8.93;81.63;97929.36;108885;1250;101266;-73
2023/05/04 00:31:02;;;;;;;28.60;21.00;;;;;;;8.94;81.64;97931.77;108928;1250;98942;-75
2023/05/04 00:33:30;;;;;;;21.20;17.90;;;;;;;8.94;81.72;97927.58;108585;1251;94303;-72
2023/05/04 00:35:58;;;;;;;24.80;17.60;;;;;;;8.95;81.63;97928.38;108900;1250;94610;-76
2023/05/04 00:38:26;;;;;;;23.00;16.60;;;;;;;8.96;81.71;97925.02;108551;1250;102631;-72
2023/05/04 00:40:54;;;;;;;22.40;15.80;;;;;;;8.94;81.63;97921.29;108906;1250;100286;-73
2023/05/04 00:43:22;;;;;;;22.00;15.80;;;;;;;8.93;81.63;97922.70;108908;1250;99841;-74
2023/05/04 00:45:51;;;;;;;19.80;16.80;;;;;;;8.92;81.68;97920.69;108752;1251;94231;-72
2023/05/04 00:48:19;;;;;;;23.00;15.90;;;;;;;8.90;81.68;97915.13;108821;1254;94519;-73
2023/05/04 00:50:47;;;;;;;19.30;15.30;;;;;;;8.89;81.70;97914.73;108891;1250;102488;-73
2023/05/04 00:53:15;;;;;;;21.50;17.70;;;;;;;8.86;81.71;97911.16;108947;1250;101196;-73
2023/05/04 00:55:43;;;;;;;21.50;16.00;;;;;;;8.85;81.69;97903.60;108896;1250;100224;-74
2023/05/04 00:58:12;;;;;;;21.30;15.80;;;;;;;8.86;81.66;97905.48;108948;1250;94162;-73
2023/05/04 01:00:40;;;;;;;22.00;15.40;;;;;;;8.85;81.66;97907.10;108913;1250;94253;-72
2023/05/04 01:03:10;;;;;;;24.30;16.80;;;;;;;8.85;81.72;97904.44;108639;1250;102361;-72
2023/05/04 01:05:43;;;;;;;20.70;16.50;;;;;;;8.84;81.67;97902.77;108962;1250;101355;-73
2023/05/04 01:08:17;;;;;;;24.90;17.80;;;;;;;8.81;81.66;97906.97;108943;1251;100070;-75
2023/05/04 01:11:01;;;;;;;18.50;16.40;;;;;;;8.78;81.75;97908.71;108927;1250;94430;-73
2023/05/04 01:13:34;;;;;;;20.60;15.50;;;;;;;8.77;81.88;97903.72;108893;1250;94530;-73
2023/05/04 01:16:04;;;;;;;19.80;14.30;;;;;;;8.77;81.74;97900.42;108865;1250;102264;-72
2023/05/04 01:18:32;;;;;;;16.20;13.50;;;;;;;8.76;81.76;97902.79;108910;1250;100534;-76
2023/05/04 01:21:00;;;;;;;16.00;13.30;;;;;;;8.76;81.83;97907.10;108862;1250;99977;-76
2023/05/04 01:23:28;;;;;;;16.20;12.90;;;;;;;8.76;81.75;97906.33;108900;1251;94222;-72
2023/05/04 01:26:07;;;;;;;17.50;13.50;;;;;;;8.76;81.69;97906.83;108596;1256;95213;-75
2023/05/04 01:28:47;;;;;;;15.30;12.50;;;;;;;8.75;81.56;97909.29;108916;1250;102262;-71
2023/05/04 01:31:21;;;;;;;19.20;13.30;;;;;;;8.74;81.63;97908.69;108631;1251;101448;-73
2023/05/04 01:33:53;;;;;;;20.20;13.40;;;;;;;8.73;81.50;97907.80;108574;1251;99862;-74
2023/05/04 01:36:22;;;;;;;16.80;13.30;;;;;;;8.70;81.61;97910.83;108919;1251;94179;-73
2023/05/04 01:38:54;;;;;;;19.80;14.00;;;;;;;8.69;81.63;97910.83;108775;1251;96553;-75
2023/05/04 01:41:22;;;;;;;;;;;;;;;8.67;81.62;97911.52;108944;1251;102468;-72
2023/05/04 01:43:50;;;;;;;19.20;14.60;;;;;;;8.63;81.70;97911.70;108904;1251;101321;-74
2023/05/04 01:46:19;;;;;;;21.40;15.40;;;;;;;8.62;81.79;97911.97;108291;1251;98831;-74
2023/05/04 01:48:47;;;;;;;21.60;14.80;;;;;;;8.58;81.75;97906.91;108893;1251;94165;-72
2023/05/04 01:51:15;;;;;;;19.90;14.50;;;;;;;8.54;81.82;97907.11;108936;1250;94247;-72
2023/05/04 01:53:43;;;;;;;18.00;14.40;;;;;;;8.49;81.89;97909.83;108899;1251;102375;-72
2023/05/04 01:56:11;;;;;;;20.10;14.20;;;;;;;8.45;81.93;97909.42;108930;1251;101331;-71
2023/05/04 01:58:40;;;;;;;19.00;14.40;;;;;;;8.41;81.88;97908.13;108686;1252;98564;-72
2023/05/04 02:01:08;;;;;;;20.00;14.60;;;;;;;8.37;82.02;97906.64;108889;1251;94218;-73
2023/05/04 02:03:36;;;;;;;20.70;16.30;;;;;;;8.37;82.14;97902.21;108960;1251;94481;-73
2023/05/04 02:06:04;;;;;;;22.20;16.20;;;;;;;8.38;82.18;97903.31;108924;1251;102536;-72
2023/05/04 02:08:32;;;;;;;25.20;17.40;;;;;;;8.40;82.25;97900.58;108580;1251;101396;-73
2023/05/04 02:11:00;;;;;;;20.10;16.50;;;;;;;8.42;82.23;97901.55;108896;1251;100569;-72
2023/05/04 02:13:28;;;;;;;20.20;15.70;;;;;;;8.43;82.20;97900.09;108886;1255;94343;-72
2023/05/04 02:15:56;;;;;;;22.00;15.40;;;;;;;8.44;82.15;97900.52;108908;1250;94454;-74
2023/05/04 02:18:24;;;;;;;20.60;17.20;;;;;;;8.46;82.17;97901.21;108870;1251;102412;-73
2023/05/04 02:20:53;;;;;;;19.10;15.40;;;;;;;8.47;82.19;97900.90;108902;1251;101613;-72
2023/05/04 02:23:21;;;;;;;20.50;15.80;;;;;;;8.46;82.14;97897.46;108893;1251;100173;-72
2023/05/04 02:25:49;;;;;;;17.80;14.60;;;;;;;8.45;82.12;97893.77;108925;1252;94183;-72
2023/05/04 02:28:17;;;;;;;20.00;16.70;;;;;;;8.44;82.10;97891.99;108952;1251;94344;-73
2023/05/04 02:30:45;;;;;;;20.80;14.40;;;;;;;8.44;82.12;97892.53;108912;1251;102394;-75
2023/05/04 02:33:13;;;;;;;17.20;13.60;;;;;;;8.44;82.03;97893.84;108908;1251;101285;-75
2023/05/04 02:35:43;;;;;;;17.10;13.60;;;;;;;8.44;81.95;97892.77;108878;1251;100162;-74
2023/05/04 02:38:12;;;;;;;19.30;13.90;;;;;;;8.44;81.96;97890.24;108883;1251;94160;-73
2023/05/04 02:40:40;;;;;;;17.60;13.70;;;;;;;8.43;81.97;97888.53;108895;1250;94324;-72
2023/05/04 02:43:08;;;;;;;17.20;12.80;;;;;;;8.42;81.92;97887.16;108918;1251;102181;-72
2023/05/04 02:45:36;;;;;;;17.50;13.30;;;;;;;8.40;81.85;97889.02;108930;1251;101293;-72
2023/05/04 02:48:04;;;;;;;17.00;14.50;;;;;;;8.38;81.80;97888.21;108835;1251;99718;-72
2023/05/04 02:50:33;;;;;;;15.60;13.00;;;;;;;8.35;81.73;97881.58;108880;1250;94230;-72
2023/05/04 02:53:01;;;;;;;19.20;14.10;;;;;;;8.32;81.70;97879.57;108931;1250;94343;-73
2023/05/04 02:55:29;;;;;;;16.70;13.60;;;;;;;8.27;81.60;97884.30;108924;1251;102467;-75
2023/05/04 02:57:57;;;;;;;17.60;14.10;;;;;;;8.22;81.53;97890.84;108945;1250;101182;-73
2023/05/04 03:00:25;;;;;;;18.10;12.90;;;;;;;8.19;81.58;97895.98;108934;1251;98973;-73
2023/05/04 03:02:54;;;;;;;16.30;13.00;;;;;;;8.16;81.47;97894.04;108629;1254;94517;-74
2023/05/04 03:05:22;;;;;;;18.60;12.80;;;;;;;8.08;81.33;97893.38;108928;1251;94401;-72
2023/05/04 03:07:51;;;;;;;15.80;12.50;;;;;;;8.00;81.37;97897.42;108904;1251;101965;-73
2023/05/04 03:10:19;;;;;;;17.70;13.40;;;;;;;7.90;81.13;97896.14;108874;1250;101715;-73
2023/05/04 03:12:47;;;;;;;17.90;12.70;;;;;;;7.81;81.24;97901.14;108911;1251;100144;-72
2023/05/04 03:15:15;;;;;;;15.80;13.10;;;;;;;7.79;81.32;97901.25;108864;1251;94409;-73
2023/05/04 03:17:43;;;;;;;17.20;12.00;;;;;;;7.76;81.19;97902.36;108902;1251;94564;-72
2023/05/04 03:20:13;;;;;;;13.90;12.00;;;;;;;7.68;81.19;97900.21;108908;1254;102488;-73
2023/05/04 03:22:41;;;;;;;16.90;12.40;;;;;;;7.62;81.20;97901.13;108726;1251;101192;-72
2023/05/04 03:25:09;;;;;;;13.50;11.10;;;;;;;7.58;81.37;97904.40;108878;1251;100076;-73
2023/05/04 03:27:37;;;;;;;12.70;10.30;;;;;;;7.57;81.34;97903.05;108894;1251;94241;-75
2023/05/04 03:30:06;;;;;;;12.00;9.60;;;;;;;7.57;81.18;97903.84;108910;1251;94622;-72
2023/05/04 03:32:35;;;;;;;12.30;9.10;;;;;;;7.55;81.11;97901.73;108919;1250;101727;-73
2023/05/04 03:35:03;;;;;;;14.60;11.40;;;;;;;7.54;81.10;97895.52;108907;1251;101499;-74
2023/05/04 03:37:31;;;;;;;16.30;12.30;;;;;;;7.53;81.14;97894.38;108852;1251;99893;-72
2023/05/04 03:39:59;;;;;;;15.80;12.90;;;;;;;7.55;81.15;97894.23;108885;1250;94250;-74
2023/05/04 03:42:27;;;;;;;14.30;11.70;;;;;;;7.56;81.14;97897.48;108700;1250;94397;-74
2023/05/04 03:44:55;;;;;;;17.10;12.40;;;;;;;7.55;81.03;97896.99;108904;1250;102305;-73
2023/05/04 03:47:23;;;;;;;14.50;11.90;;;;;;;7.55;80.99;97895.98;108886;1251;101471;-75
2023/05/04 03:49:51;;;;;;;15.50;12.10;;;;;;;7.55;81.07;97896.69;108881;1251;100027;-72
2023/05/04 03:52:19;;;;;;;16.20;13.40;;;;;;;7.55;81.13;97899.91;108888;1251;94418;-72
2023/05/04 03:54:48;;;;;;;19.50;13.50;;;;;;;7.55;81.19;97903.30;108916;1250;94759;-72
2023/05/04 03:57:16;;;;;;;18.50;14.10;;;;;;;7.56;81.35;97902.83;108883;1251;102266;-73
2023/05/04 03:59:44;;;;;;;17.60;13.80;;;;;;;7.58;81.42;97904.06;108626;1251;102044;-72
2023/05/04 04:02:12;;;;;;;18.30;14.10;;;;;;;7.60;81.43;97904.88;108688;1251;100024;-72
2023/05/04 04:04:40;;;;;;;16.80;14.00;;;;;;;7.63;81.36;97906.55;108637;1251;94282;-75
2023/05/04 04:07:08;;;;;;;19.60;14.80;;;;;;;7.64;81.29;97909.27;108589;1250;95174;-73
2023/05/04 04:09:36;;;;;;;17.90;15.00;;;;;;;7.65;81.27;97906.14;108904;1250;102295;-72
2023/05/04 04:12:05;;;;;;;24.80;19.30;;;;;;;7.66;81.33;97905.84;108916;1251;101298;-74
2023/05/04 04:14:33;;;;;;;31.90;19.80;;;;;;;7.69;81.54;97908.33;108883;1251;108471;-72
2023/05/04 04:17:01;;;;;;;30.90;21.90;;;;;;;7.72;81.74;97909.75;108878;1251;94456;-72
2023/05/04 04:19:29;;;;;;;32.00;21.40;;;;;;;7.76;81.87;97905.52;108902;1251;94491;-73
2023/05/04 04:21:58;;;;;;;29.30;21.90;;;;;;;7.80;81.88;97908.02;108908;1251;102381;-72
2023/05/04 04:24:26;;;;;;;31.80;22.40;;;;;;;7.83;81.87;97908.95;108922;1251;101615;-76
2023/05/04 04:26:54;;;;;;;36.20;24.90;;;;;;;7.83;81.83;97908.78;108879;1251;100251;-76
2023/05/04 04:29:23;;;;;;;41.50;24.70;;;;;;;7.84;81.79;97911.77;108844;1250;94541;-75
2023/05/04 04:31:51;;;;;;;34.80;24.10;;;;;;;7.85;81.85;97915.58;108893;1251;94609;-73
2023/05/04 04:34:19;;;;;;;34.10;23.40;;;;;;;7.85;81.87;97913.60;108858;1250;100960;-72
2023/05/04 04:36:47;;;;;;;41.00;22.90;;;;;;;7.87;81.87;97915.62;108879;1251;101534;-72
2023/05/04 04:39:15;;;;;;;31.40;22.90;;;;;;;7.90;81.88;97918.11;108854;1251;99984;-73
2023/05/04 04:41:44;;;;;;;34.00;22.80;;;;;;;7.93;81.97;97919.73;108568;1251;94402;-75
2023/05/04 04:44:12;;;;;;;35.30;24.10;;;;;;;7.96;82.02;97915.81;108893;1250;94346;-72
2023/05/04 04:46:40;;;;;;;31.50;23.70;;;;;;;8.01;82.04;97916.00;108885;1250;102094;-74
2023/05/04 04:49:08;;;;;;;34.60;23.90;;;;;;;8.05;82.08;97918.39;108870;1251;101533;-72
2023/05/04 04:51:36;;;;;;;36.40;26.30;;;;;;;8.08;82.10;97919.02;108904;1250;100094;-72
2023/05/04 04:54:05;;;;;;;40.00;26.80;;;;;;;8.13;82.08;97915.06;108820;1251;94224;-72
2023/05/04 04:56:33;;;;;;;43.30;28.70;;;;;;;8.16;82.06;97919.14;108655;1251;94572;-75
2023/05/04 04:59:01;;;;;;;49.00;33.70;;;;;;;8.16;81.98;97920.23;108877;1250;101957;-74
2023/05/04 05:01:30;;;;;;;42.60;29.60;;;;;;;8.17;82.05;97923.80;108643;1251;101380;-72
2023/05/04 05:03:58;;;;;;;31.80;23.60;;;;;;;8.22;82.08;97921.13;108897;1250;99760;-71
2023/05/04 05:06:26;;;;;;;31.60;22.80;;;;;;;8.26;82.11;97924.17;108856;1251;94234;-72
2023/05/04 05:08:54;;;;;;;35.20;24.10;;;;;;;8.30;81.91;97923.38;108814;1251;95572;-73
2023/05/04 05:11:22;;;;;;;34.30;24.70;;;;;;;8.35;81.83;97928.63;108860;1250;102505;-72
2023/05/04 05:13:50;;;;;;;30.90;23.30;;;;;;;8.39;81.63;97926.17;108626;1251;101423;-75
2023/05/04 05:16:18;;;;;;;30.90;22.50;;;;;;;8.44;81.72;97927.73;108841;1251;99989;-72
2023/05/04 05:18:46;;;;;;;34.70;22.60;;;;;;;8.45;81.61;97927.18;108859;1250;94196;-72
2023/05/04 05:21:14;;;;;;;25.30;20.80;;;;;;;8.49;81.60;97929.88;108889;1251;94254;-73
2023/05/04 05:23:43;;;;;;;35.30;26.00;;;;;;;8.49;81.57;97929.17;108889;1250;102436;-72
2023/05/04 05:26:11;;;;;;;37.00;24.80;;;;;;;8.52;81.52;97928.88;108917;1251;101250;-72
2023/05/04 05:28:39;;;;;;;41.10;30.10;;;;;;;8.56;81.44;97934.79;108884;1250;100264;-72
2023/05/04 05:31:07;;;;;;;39.80;29.90;;;;;;;8.59;81.45;97934.91;108827;1250;94601;-73
2023/05/04 05:33:35;;;;;;;38.40;26.90;;;;;;;8.60;81.43;97934.98;108913;1250;94538;-71
2023/05/04 05:36:04;;;;;;;31.00;25.00;;;;;;;8.64;81.51;97933.15;108707;1250;102257;-72
2023/05/04 05:38:32;;;;;;;41.20;27.30;;;;;;;8.69;81.65;97930.69;108879;1250;101297;-73
2023/05/04 05:41:01;;;;;;;29.50;23.30;;;;;;;8.72;81.84;97930.31;108915;1250;100394;-76
2023/05/04 05:43:29;;;;;;;26.70;20.20;;;;;;;8.75;81.86;97936.23;108845;1250;94249;-76
2023/05/04 05:45:57;;;;;;;25.60;19.40;;;;;;;8.83;81.90;97938.83;108629;1251;94891;-73
2023/05/04 05:48:25;;;;;;;29.90;22.70;;;;;;;8.90;81.60;97938.35;108940;1250;101805;-74
2023/05/04 05:50:53;;;;;;;25.50;20.90;;;;;;;8.91;81.38;97939.85;108905;1251;101189;-74
2023/05/04 05:53:21;;;;;;;21.70;17.50;;;;;;;8.95;81.31;97939.85;108843;1250;99827;-73
2023/05/04 05:55:49;;;;;;;23.60;16.70;;;;;;;8.98;81.14;97941.05;108606;1251;94242;-72
2023/05/04 05:58:18;;;;;;;21.00;15.50;;;;;;;9.01;81.06;97939.27;108863;1250;95185;-72
2023/05/04 06:00:46;;;;;;;26.60;20.10;;;;;;;9.04;80.95;97936.96;108899;1250;102160;-72
2023/05/04 06:03:15;;;;;;;24.40;19.30;;;;;;;9.05;80.84;97939.37;108931;1250;101570;-73
2023/05/04 06:05:43;;;;;;;24.00;17.00;;;;;;;9.03;80.83;97938.55;108853;1250;99694;-73
2023/05/04 06:08:11;;;;;;;22.70;16.30;;;;;;;9.07;80.85;97937.70;108593;1251;94414;-72
2023/05/04 06:10:39;;;;;;;19.10;15.20;;;;;;;9.11;80.87;97930.19;108912;1250;94962;-73
2023/05/04 06:13:07;;;;;;;25.20;16.00;;;;;;;9.17;80.85;97931.25;108874;1250;101998;-73
2023/05/04 06:15:35;;;;;;;23.10;16.90;;;;;;;9.22;80.87;97930.73;108768;1250;101553;-72
2023/05/04 06:18:03;;;;;;;22.90;17.20;;;;;;;9.26;80.79;97932.40;108901;1250;100010;-73
2023/05/04 06:20:31;;;;;;;25.20;17.80;;;;;;;9.26;80.66;97928.70;108830;1250;94202;-73
2023/05/04 06:23:00;;;;;;;23.70;17.10;;;;;;;9.28;80.71;97928.06;108879;1250;94300;-73
2023/05/04 06:25:28;;;;;;;27.00;18.40;;;;;;;9.34;80.66;97927.46;108898;1250;101783;-72
2023/05/04 06:27:56;;;;;;;21.80;18.20;;;;;;;9.40;80.70;97927.20;108880;1250;101339;-74
2023/05/04 06:30:24;;;;;;;21.40;16.50;;;;;;;9.48;80.73;97926.20;108659;1250;99337;-73
2023/05/04 06:32:52;;;;;;;21.60;16.90;;;;;;;9.54;80.76;97931.07;108843;1250;94206;-76
2023/05/04 06:35:20;;;;;;;21.50;17.00;;;;;;;9.62;80.67;97927.38;108877;1250;94679;-72
2023/05/04 06:37:48;;;;;;;21.70;16.30;;;;;;;9.71;80.53;97922.79;108919;1250;101685;-72
2023/05/04 06:40:16;;;;;;;21.70;15.60;;;;;;;9.81;80.40;97927.80;108871;1251;101234;-73
2023/05/04 06:42:45;;;;;;;20.20;15.20;;;;;;;9.93;80.38;97929.36;108584;1250;100017;-73
2023/05/04 06:45:13;;;;;;;20.80;14.50;;;;;;;10.05;80.44;97933.61;108900;1251;94222;-75
2023/05/04 06:47:41;;;;;;;20.00;14.50;;;;;;;10.17;80.26;97935.67;108920;1250;94717;-73
2023/05/04 06:50:10;;;;;;;16.80;12.90;;;;;;;10.29;79.76;97935.12;108938;1250;101865;-72
2023/05/04 06:52:39;;;;;;;17.10;14.30;;;;;;;10.38;79.65;97933.40;108742;1250;101334;-72
2023/05/04 06:55:08;;;;;;;14.70;12.70;;;;;;;10.48;79.46;97929.71;108879;1250;99774;-73
2023/05/04 06:57:36;;;;;;;15.20;11.70;;;;;;;10.60;79.44;97932.62;108880;1250;94273;-75
2023/05/04 07:00:05;;;;;;;17.20;11.60;;;;;;;10.73;79.13;97928.74;108899;1250;94613;-73
2023/05/04 07:02:33;;;;;;;14.20;10.40;;;;;;;10.82;78.23;97931.46;108919;1250;102708;-73
2023/05/04 07:05:02;;;;;;;14.80;11.60;;;;;;;10.87;77.57;97930.23;108958;1250;101516;-73
2023/05/04 07:07:30;;;;;;;15.00;11.70;;;;;;;10.95;77.75;97929.11;108609;1250;99822;-75
2023/05/04 07:09:59;;;;;;;13.90;10.80;;;;;;;11.05;77.37;97928.78;108858;1250;94217;-72
2023/05/04 07:12:27;;;;;;;16.90;11.60;;;;;;;11.14;76.79;97927.81;108575;1252;94573;-73
2023/05/04 07:14:55;;;;;;;15.20;11.20;;;;;;;11.20;76.26;97918.95;108690;1252;102087;-73
2023/05/04 07:17:24;;;;;;;16.50;11.50;;;;;;;11.27;75.97;97921.99;108662;1252;101429;-77
2023/05/04 07:19:52;;;;;;;15.60;11.60;;;;;;;11.34;76.09;97921.48;108701;1251;100208;-73
2023/05/04 07:22:20;;;;;;;14.90;11.00;;;;;;;11.42;75.79;97922.09;108704;1252;94640;-75
2023/05/04 07:24:49;;;;;;;15.50;10.60;;;;;;;11.52;75.42;97921.86;108681;1252;94727;-73
2023/05/04 07:27:17;;;;;;;12.40;9.00;;;;;;;11.65;75.22;97919.97;108593;1252;101767;-77
2023/05/04 07:29:45;;;;;;;12.50;8.80;;;;;;;11.79;74.42;97916.77;108556;1252;100320;-74
2023/05/04 07:32:14;;;;;;;12.10;8.20;;;;;;;11.97;73.92;97916.55;108669;1252;99925;-74
2023/05/04 07:34:42;;;;;;;12.90;8.50;;;;;;;12.22;73.61;97918.16;108717;1252;94304;-75
2023/05/04 07:37:10;;;;;;;12.20;9.50;;;;;;;12.57;73.37;97920.44;108567;1252;95736;-73
2023/05/04 07:39:38;;;;;;;12.70;8.60;;;;;;;13.03;73.04;97917.56;108702;1252;102025;-74
2023/05/04 07:42:08;;;;;;;11.30;7.80;;;;;;;13.54;71.65;97910.58;108755;1252;101098;-75
2023/05/04 07:44:36;;;;;;;10.20;7.70;;;;;;;13.97;70.98;97911.55;108718;1252;100064;-77
2023/05/04 07:47:04;;;;;;;10.70;6.80;;;;;;;14.13;69.27;97913.16;108718;1252;94561;-74
2023/05/04 07:49:33;;;;;;;11.10;6.90;;;;;;;14.35;68.59;97912.30;108725;1252;94658;-74
2023/05/04 07:52:01;;;;;;;10.50;7.20;;;;;;;14.54;68.43;97913.27;108718;1252;102456;-73
2023/05/04 07:54:29;;;;;;;9.30;6.50;;;;;;;14.89;68.02;97914.70;108592;1252;101445;-74
2023/05/04 07:56:57;;;;;;;7.90;5.90;;;;;;;15.30;67.86;97912.98;108546;1252;99320;-73
2023/05/04 07:59:25;;;;;;;10.10;6.80;;;;;;;15.63;66.68;97914.23;108661;1252;94257;-78
2023/05/04 08:01:53;;;;;;;7.30;5.90;;;;;;;15.91;65.98;97913.95;108774;1252;94670;-74
2023/05/04 08:04:21;;;;;;;8.80;5.00;;;;;;;16.10;64.87;97911.92;108585;1252;102161;-74
2023/05/04 08:06:49;;;;;;;6.50;4.90;;;;;;;16.07;63.79;97913.20;108748;1252;101482;-74
2023/05/04 08:09:18;;;;;;;5.30;4.40;;;;;;;15.97;63.42;97912.52;108712;1252;99793;-74
2023/05/04 08:11:47;;;;;;;7.90;5.40;;;;;;;15.85;62.69;97913.89;108757;1250;94268;-74
2023/05/04 08:14:15;;;;;;;7.10;5.60;;;;;;;15.63;62.60;97914.13;108925;1250;94279;-76
2023/05/04 08:16:43;;;;;;;9.40;4.60;;;;;;;15.57;62.56;97914.16;108688;1250;102102;-76
2023/05/04 08:19:12;;;;;;;6.50;4.50;;;;;;;15.46;61.92;97914.85;108921;1250;101247;-73
2023/05/04 08:21:40;;;;;;;6.30;5.00;;;;;;;15.28;61.51;97916.07;108880;1250;99977;-74
2023/05/04 08:24:08;;;;;;;9.80;5.50;;;;;;;15.27;61.20;97911.90;108870;1250;94181;-74
2023/05/04 08:26:39;;;;;;;6.90;4.60;;;;;;;15.61;61.78;97909.20;108931;1250;94183;-74
2023/05/04 08:29:09;;;;;;;6.90;4.60;;;;;;;16.23;62.19;97906.94;108690;1250;102157;-74
2023/05/04 08:31:38;;;;;;;5.40;4.10;;;;;;;16.87;61.15;97908.36;108876;1250;102054;-74
2023/05/04 08:34:07;;;;;;;6.60;4.40;;;;;;;17.29;60.20;97908.87;108842;1250;99900;-75
2023/05/04 08:36:35;;;;;;;7.10;4.60;;;;;;;17.83;59.52;97911.19;108666;1250;94381;-75
2023/05/04 08:39:03;;;;;;;6.00;4.70;;;;;;;17.99;57.93;97905.86;108736;1250;94379;-74
2023/05/04 08:41:31;;;;;;;7.40;5.00;;;;;;;18.15;57.51;97908.88;108893;1250;108861;-74
2023/05/04 08:44:00;;;;;;;6.10;5.10;;;;;;;18.38;56.67;97910.02;108735;1250;101440;-74
2023/05/04 08:46:32;;;;;;;8.50;5.10;;;;;;;18.33;56.20;97908.35;108910;1250;98477;-77
2023/05/04 08:49:00;;;;;;;6.90;4.80;;;;;;;18.21;56.16;97906.46;108590;1251;94253;-75
2023/05/04 08:51:29;;;;;;;6.40;4.60;;;;;;;18.50;55.89;97907.55;108557;1255;95297;-75
2023/05/04 08:53:59;;;;;;;6.70;4.20;;;;;;;18.86;55.18;97904.03;108649;1250;101804;-72
2023/05/04 08:56:27;;;;;;;7.70;5.00;;;;;;;19.23;54.91;97905.15;108899;1250;101269;-74
2023/05/04 08:59:00;;;;;;;5.60;4.90;;;;;;;19.24;53.94;97906.73;108881;1250;99891;-73
2023/05/04 09:01:31;;;;;;;8.60;5.00;;;;;;;19.33;53.31;97909.10;108909;1250;94219;-73
2023/05/04 09:04:02;;;;;;;6.20;4.90;;;;;;;19.39;52.82;97913.11;108935;1250;94386;-72
2023/05/04 09:06:31;;;;;;;7.20;5.40;;;;;;;19.28;52.38;97915.45;108955;1250;102704;-71
2023/05/04 09:08:59;;;;;;;7.20;5.20;;;;;;;19.14;52.02;97913.56;108936;1250;100969;-72
2023/05/04 09:11:28;;;;;;;5.80;4.80;;;;;;;19.16;52.01;97912.48;108844;1250;99264;-72
2023/05/04 09:13:56;;;;;;;10.40;5.20;;;;;;;19.50;51.55;97908.66;108880;1250;94505;-72
2023/05/04 09:16:33;;;;;;;7.20;5.20;;;;;;;19.92;51.20;97904.80;108885;1250;94559;-72
2023/05/04 09:19:02;;;;;;;5.40;4.80;;;;;;;20.36;50.36;97902.09;108954;1250;100924;-72
2023/05/04 09:21:32;;;;;;;8.70;5.30;;;;;;;20.33;49.22;97898.98;108934;1250;101478;-72
2023/05/04 09:24:00;;;;;;;8.50;5.00;;;;;;;20.07;48.47;97894.42;108865;1250;100102;-72
2023/05/04 09:26:33;;;;;;;5.30;4.70;;;;;;;19.85;47.65;97892.02;108719;1250;229469;-74
2023/05/04 09:29:12;;;;;;;5.80;5.20;;;;;;;19.53;48.31;97895.61;108922;1250;95158;-72
2023/05/04 09:31:51;;;;;;;6.50;5.20;;;;;;;19.63;48.97;97890.36;108930;1250;102236;-72
2023/05/04 09:34:21;;;;;;;5.20;4.30;;;;;;;19.86;49.11;97886.42;108921;1250;100164;-73
2023/05/04 09:37:02;;;;;;;6.60;4.90;;;;;;;20.17;48.62;97883.98;108863;1250;99912;-74
2023/05/04 09:39:30;;;;;;;5.80;4.70;;;;;;;20.29;48.04;97882.05;108876;1250;94243;-76
2023/05/04 09:41:59;;;;;;;7.50;4.80;;;;;;;20.51;48.33;97880.11;108940;1250;94217;-73
2023/05/04 09:44:27;;;;;;;9.00;5.80;;;;;;;20.78;47.62;97880.95;108929;1250;102153;-73
2023/05/04 09:47:00;;;;;;;6.60;4.80;;;;;;;20.94;47.27;97882.96;108925;1250;101375;-74
2023/05/04 09:49:35;;;;;;;;;;;;;;;20.94;46.82;97877.96;108834;1251;99643;-75
2023/05/04 09:52:05;;;;;;;6.10;4.40;;;;;;;20.88;46.06;97877.76;108905;1250;94214;-74
2023/05/04 09:54:37;;;;;;;5.80;4.60;;;;;;;20.87;46.43;97880.72;108733;1251;94297;-73
2023/05/04 09:57:15;;;;;;;5.60;4.00;;;;;;;21.03;46.44;97880.53;108519;1251;103013;-74
2023/05/04 09:59:43;;;;;;;6.10;4.10;;;;;;;21.03;45.35;97875.85;108890;1250;100585;-76
2023/05/04 10:02:13;;;;;;;5.60;4.50;;;;;;;21.05;45.50;97870.27;108840;1250;100121;-72
2023/05/04 10:04:43;;;;;;;7.60;4.40;;;;;;;21.13;44.95;97869.72;108580;1250;94616;-77
2023/05/04 10:07:12;;;;;;;8.00;4.50;;;;;;;21.31;44.88;97867.13;108875;1250;94301;-72
2023/05/04 10:09:41;;;;;;;6.10;4.40;;;;;;;21.52;45.01;97869.39;108879;1250;102390;-72
2023/05/04 10:12:09;;;;;;;7.80;4.40;;;;;;;21.61;44.47;97870.13;108905;1250;101275;-72
2023/05/04 10:14:37;;;;;;;6.00;4.40;;;;;;;21.71;44.32;97865.54;108929;1250;100018;-77
2023/05/04 10:17:13;;;;;;;5.60;4.70;;;;;;;21.84;43.73;97866.49;108930;1250;94529;-73
2023/05/04 10:19:47;;;;;;;6.00;4.20;;;;;;;21.94;43.15;97857.34;108651;1250;94444;-73
2023/05/04 10:22:38;;;;;;;4.70;4.20;;;;;;;22.06;42.82;97857.15;108868;1250;102158;-72
2023/05/04 10:25:43;;;;;;;6.00;4.00;;;;;;;22.23;42.98;97858.73;108795;1251;101482;-77
2023/05/04 10:28:48;;;;;;;6.70;4.30;;;;;;;22.29;42.20;97847.26;108223;1258;100188;-74
2023/05/04 10:31:17;;;;;;;6.50;4.00;;;;;;;22.42;41.84;97845.48;108265;1258;94721;-72
2023/05/04 10:33:46;;;;;;;5.90;4.00;;;;;;;22.65;42.14;97847.82;108310;1258;94337;-73
2023/05/04 10:36:14;;;;;;;7.20;4.40;;;;;;;22.77;41.09;97847.98;108282;1258;101013;-72
2023/05/04 10:38:42;;;;;;;5.70;4.70;;;;;;;22.80;41.25;97845.17;108295;1258;110110;-73
2023/05/04 10:41:14;;;;;;;5.60;4.10;;;;;;;22.83;40.85;97843.84;108300;1258;99174;-74
2023/05/04 10:43:47;;;;;;;6.80;4.70;;;;;;;22.53;40.58;97833.86;108300;1258;94402;-73
2023/05/04 10:46:23;;;;;;;8.10;4.20;;;;;;;22.36;40.24;97829.82;108219;1258;94747;-75
2023/05/04 10:48:51;;;;;;;5.30;4.10;;;;;;;21.99;41.06;97826.84;108278;1258;102351;-76
2023/05/04 10:51:24;;;;;;;6.00;3.90;;;;;;;22.07;41.29;97827.95;108305;1257;101056;-73
2023/05/04 10:53:53;;;;;;;8.70;4.70;;;;;;;22.13;40.50;97828.23;108089;1258;101103;-73
2023/05/04 10:56:21;;;;;;;8.70;5.60;;;;;;;22.31;41.34;97824.70;108296;1258;94222;-76
2023/05/04 10:58:50;;;;;;;9.50;4.90;;;;;;;22.54;40.89;97823.79;108161;1258;94583;-74
2023/05/04 11:01:19;;;;;;;7.30;4.90;;;;;;;22.69;41.06;97823.77;108221;1259;102228;-75
2023/05/04 11:03:49;;;;;;;5.80;5.00;;;;;;;22.77;39.78;97823.48;108318;1258;101364;-73
2023/05/04 11:06:23;;;;;;;7.70;5.10;;;;;;;22.56;40.05;97822.25;108807;1250;99960;-75
2023/05/04 11:09:05;;;;;;;10.60;4.90;;;;;;;22.57;40.62;97824.45;108798;1251;95303;-73
2023/05/04 11:11:37;;;;;;;6.30;4.90;;;;;;;22.82;40.17;97827.54;108900;1250;94629;-73
2023/05/04 11:14:05;;;;;;;4.90;4.40;;;;;;;23.07;39.73;97824.20;108896;1250;102134;-73
2023/05/04 11:16:33;;;;;;;6.60;5.00;;;;;;;23.21;39.52;97817.76;108957;1250;101243;-73
2023/05/04 11:19:08;;;;;;;6.00;4.80;;;;;;;23.24;38.58;97814.45;108862;1251;99601;-77
2023/05/04 11:21:36;;;;;;;6.00;4.40;;;;;;;23.25;38.66;97809.42;108652;1250;94319;-75
2023/05/04 11:24:05;;;;;;;5.30;4.60;;;;;;;23.27;37.75;97807.77;108888;1250;94390;-72
2023/05/04 11:26:33;;;;;;;7.30;4.80;;;;;;;23.27;37.94;97802.48;108950;1250;102401;-73